sensor_id;sensor_type;location;lat;lon;timestamp;temperature;humidity
10443;DHT22;5269;51.146;16.986;2022-07-06T00:02:20;16.00;99.90
10443;DHT22;5269;51.146;16.986;2022-07-06T00:04:47;16.10;99.90
10443;DHT22;5269;51.146;16.986;2022-07-06T00:07:15;16.10;99.90
10443;DHT22;5269;51.146;16.986;2022-07-06T00:09:42;16.00;99.90
10443;DHT22;5269;51.146;16.986;2022-07-06T00:12:09;15.90;99.90
10443;DHT22;5269;51.146;16.986;2022-07-06T00:14:36;15.80;99.90
10443;DHT22;5269;51.146;16.986;2022-07-06T00:17:03;15.80;99.90
10443;DHT22;5269;51.146;16.986;2022-07-06T00:19:30;15.80;99.90
10443;DHT22;5269;51.146;16.986;2022-07-06T00:21:57;15.80;99.90
10443;DHT22;5269;51.146;16.986;2022-07-06T00:24:26;15.90;99.90
10443;DHT22;5269;51.146;16.986;2022-07-06T00:26:53;15.80;99.90
10443;DHT22;5269;51.146;16.986;2022-07-06T00:29:20;15.70;99.90
10443;DHT22;5269;51.146;16.986;2022-07-06T00:31:46;15.70;99.90
10443;DHT22;5269;51.146;16.986;2022-07-06T00:34:15;15.70;99.90
10443;DHT22;5269;51.146;16.986;2022-07-06T00:36:42;15.70;99.90
10443;DHT22;5269;51.146;16.986;2022-07-06T00:39:09;15.70;99.90
10443;DHT22;5269;51.146;16.986;2022-07-06T00:41:37;15.70;99.90
10443;DHT22;5269;51.146;16.986;2022-07-06T00:44:07;15.70;99.90
10443;DHT22;5269;51.146;16.986;2022-07-06T00:46:35;15.70;99.90
10443;DHT22;5269;51.146;16.986;2022-07-06T00:49:02;15.70;99.90
10443;DHT22;5269;51.146;16.986;2022-07-06T00:51:31;15.70;99.90
10443;DHT22;5269;51.146;16.986;2022-07-06T00:54:00;15.60;99.90
10443;DHT22;5269;51.146;16.986;2022-07-06T00:56:29;15.70;99.90
10443;DHT22;5269;51.146;16.986;2022-07-06T00:59:00;15.70;99.90
10443;DHT22;5269;51.146;16.986;2022-07-06T01:01:27;15.70;99.90
10443;DHT22;5269;51.146;16.986;2022-07-06T01:03:54;15.70;99.90
10443;DHT22;5269;51.146;16.986;2022-07-06T01:06:21;15.50;99.90
10443;DHT22;5269;51.146;16.986;2022-07-06T01:08:48;15.60;99.90
10443;DHT22;5269;51.146;16.986;2022-07-06T01:11:16;15.60;99.90
10443;DHT22;5269;51.146;16.986;2022-07-06T01:13:44;15.70;99.90
10443;DHT22;5269;51.146;16.986;2022-07-06T01:16:13;15.70;99.90
10443;DHT22;5269;51.146;16.986;2022-07-06T01:18:41;15.60;99.90
10443;DHT22;5269;51.146;16.986;2022-07-06T01:21:10;15.50;99.90
10443;DHT22;5269;51.146;16.986;2022-07-06T01:23:41;15.60;99.90
10443;DHT22;5269;51.146;16.986;2022-07-06T01:28:36;15.50;99.90
10443;DHT22;5269;51.146;16.986;2022-07-06T01:31:03;15.40;99.90
10443;DHT22;5269;51.146;16.986;2022-07-06T01:33:31;15.60;99.90
10443;DHT22;5269;51.146;16.986;2022-07-06T01:35:58;15.50;99.90
10443;DHT22;5269;51.146;16.986;2022-07-06T01:38:26;15.60;99.90
10443;DHT22;5269;51.146;16.986;2022-07-06T01:40:53;15.50;99.90
10443;DHT22;5269;51.146;16.986;2022-07-06T01:43:20;15.40;99.90
10443;DHT22;5269;51.146;16.986;2022-07-06T01:45:47;15.40;99.90
10443;DHT22;5269;51.146;16.986;2022-07-06T01:48:14;15.30;99.90
10443;DHT22;5269;51.146;16.986;2022-07-06T01:50:41;15.40;99.90
10443;DHT22;5269;51.146;16.986;2022-07-06T01:53:08;15.30;99.90
10443;DHT22;5269;51.146;16.986;2022-07-06T01:55:36;15.40;99.90
10443;DHT22;5269;51.146;16.986;2022-07-06T01:58:03;15.40;99.90
10443;DHT22;5269;51.146;16.986;2022-07-06T02:00:30;15.50;99.90
10443;DHT22;5269;51.146;16.986;2022-07-06T02:02:57;15.60;99.90
10443;DHT22;5269;51.146;16.986;2022-07-06T02:05:24;15.50;99.90
10443;DHT22;5269;51.146;16.986;2022-07-06T02:07:51;15.60;99.90
10443;DHT22;5269;51.146;16.986;2022-07-06T02:10:18;15.60;99.90
10443;DHT22;5269;51.146;16.986;2022-07-06T02:12:46;15.60;99.90
10443;DHT22;5269;51.146;16.986;2022-07-06T02:15:13;15.70;99.90
10443;DHT22;5269;51.146;16.986;2022-07-06T02:17:40;15.50;99.90
10443;DHT22;5269;51.146;16.986;2022-07-06T02:20:08;15.50;99.90
10443;DHT22;5269;51.146;16.986;2022-07-06T02:22:36;15.30;99.90
10443;DHT22;5269;51.146;16.986;2022-07-06T02:25:03;15.30;99.90
10443;DHT22;5269;51.146;16.986;2022-07-06T02:27:30;15.30;99.90
10443;DHT22;5269;51.146;16.986;2022-07-06T02:29:59;15.40;99.90
10443;DHT22;5269;51.146;16.986;2022-07-06T02:32:26;15.40;99.90
10443;DHT22;5269;51.146;16.986;2022-07-06T02:34:53;15.50;99.90
10443;DHT22;5269;51.146;16.986;2022-07-06T02:37:20;15.50;99.90
10443;DHT22;5269;51.146;16.986;2022-07-06T02:39:47;15.50;99.90
10443;DHT22;5269;51.146;16.986;2022-07-06T02:42:14;15.50;99.90
10443;DHT22;5269;51.146;16.986;2022-07-06T02:44:41;15.50;99.90
10443;DHT22;5269;51.146;16.986;2022-07-06T02:47:09;15.40;99.90
10443;DHT22;5269;51.146;16.986;2022-07-06T02:49:36;15.50;99.90
10443;DHT22;5269;51.146;16.986;2022-07-06T02:52:03;15.50;99.90
10443;DHT22;5269;51.146;16.986;2022-07-06T02:54:30;15.50;99.90
10443;DHT22;5269;51.146;16.986;2022-07-06T02:56:57;15.50;99.90
10443;DHT22;5269;51.146;16.986;2022-07-06T02:59:24;15.60;99.90
10443;DHT22;5269;51.146;16.986;2022-07-06T03:01:51;15.60;99.90
10443;DHT22;5269;51.146;16.986;2022-07-06T03:04:22;15.70;99.90
10443;DHT22;5269;51.146;16.986;2022-07-06T03:06:49;15.70;99.90
10443;DHT22;5269;51.146;16.986;2022-07-06T03:09:15;15.60;99.90
10443;DHT22;5269;51.146;16.986;2022-07-06T03:11:42;15.70;99.90
10443;DHT22;5269;51.146;16.986;2022-07-06T03:14:09;15.80;99.90
10443;DHT22;5269;51.146;16.986;2022-07-06T03:16:36;15.80;99.90
10443;DHT22;5269;51.146;16.986;2022-07-06T03:19:03;15.80;99.90
10443;DHT22;5269;51.146;16.986;2022-07-06T03:21:31;15.90;99.90
10443;DHT22;5269;51.146;16.986;2022-07-06T03:23:58;15.80;99.90
10443;DHT22;5269;51.146;16.986;2022-07-06T03:26:25;15.60;99.90
10443;DHT22;5269;51.146;16.986;2022-07-06T03:28:52;15.50;99.90
10443;DHT22;5269;51.146;16.986;2022-07-06T03:31:19;15.50;99.90
10443;DHT22;5269;51.146;16.986;2022-07-06T03:33:46;15.50;99.90
10443;DHT22;5269;51.146;16.986;2022-07-06T03:36:13;15.70;99.90
10443;DHT22;5269;51.146;16.986;2022-07-06T03:38:44;15.60;99.90
10443;DHT22;5269;51.146;16.986;2022-07-06T03:41:11;15.60;99.90
10443;DHT22;5269;51.146;16.986;2022-07-06T03:43:38;15.50;99.90
10443;DHT22;5269;51.146;16.986;2022-07-06T03:46:05;15.50;99.90
10443;DHT22;5269;51.146;16.986;2022-07-06T03:48:32;15.50;99.90
10443;DHT22;5269;51.146;16.986;2022-07-06T03:50:59;15.70;99.90
10443;DHT22;5269;51.146;16.986;2022-07-06T03:53:26;15.70;99.90
10443;DHT22;5269;51.146;16.986;2022-07-06T03:55:54;15.70;99.90
10443;DHT22;5269;51.146;16.986;2022-07-06T03:58:38;15.80;99.90
10443;DHT22;5269;51.146;16.986;2022-07-06T04:01:06;15.90;99.90
10443;DHT22;5269;51.146;16.986;2022-07-06T04:03:33;15.90;99.90
10443;DHT22;5269;51.146;16.986;2022-07-06T04:06:00;15.90;99.90
10443;DHT22;5269;51.146;16.986;2022-07-06T04:08:27;15.90;99.90
10443;DHT22;5269;51.146;16.986;2022-07-06T04:10:55;16.00;99.90
10443;DHT22;5269;51.146;16.986;2022-07-06T04:13:22;15.90;99.90
10443;DHT22;5269;51.146;16.986;2022-07-06T04:15:50;16.00;99.90
10443;DHT22;5269;51.146;16.986;2022-07-06T04:18:17;15.90;99.90
10443;DHT22;5269;51.146;16.986;2022-07-06T04:20:44;15.90;99.90
10443;DHT22;5269;51.146;16.986;2022-07-06T04:23:11;15.80;99.90
10443;DHT22;5269;51.146;16.986;2022-07-06T04:25:38;15.80;99.90
10443;DHT22;5269;51.146;16.986;2022-07-06T04:28:06;15.70;99.90
10443;DHT22;5269;51.146;16.986;2022-07-06T04:30:33;15.40;99.90
10443;DHT22;5269;51.146;16.986;2022-07-06T04:33:01;15.10;99.90
10443;DHT22;5269;51.146;16.986;2022-07-06T04:35:28;14.90;99.90
10443;DHT22;5269;51.146;16.986;2022-07-06T04:37:55;14.80;99.90
10443;DHT22;5269;51.146;16.986;2022-07-06T04:40:22;14.70;99.90
10443;DHT22;5269;51.146;16.986;2022-07-06T04:42:49;14.60;99.90
10443;DHT22;5269;51.146;16.986;2022-07-06T04:45:18;14.60;99.90
10443;DHT22;5269;51.146;16.986;2022-07-06T04:47:45;14.60;99.90
10443;DHT22;5269;51.146;16.986;2022-07-06T04:50:12;14.60;99.90
10443;DHT22;5269;51.146;16.986;2022-07-06T04:52:39;14.60;99.90
10443;DHT22;5269;51.146;16.986;2022-07-06T04:55:06;14.50;99.90
10443;DHT22;5269;51.146;16.986;2022-07-06T04:57:34;14.50;99.90
10443;DHT22;5269;51.146;16.986;2022-07-06T05:00:01;14.50;99.90
10443;DHT22;5269;51.146;16.986;2022-07-06T05:02:30;14.50;99.90
10443;DHT22;5269;51.146;16.986;2022-07-06T05:04:57;14.50;99.90
10443;DHT22;5269;51.146;16.986;2022-07-06T05:07:27;14.40;99.90
10443;DHT22;5269;51.146;16.986;2022-07-06T05:09:55;14.50;99.90
10443;DHT22;5269;51.146;16.986;2022-07-06T05:12:22;14.50;99.90
10443;DHT22;5269;51.146;16.986;2022-07-06T05:14:49;14.60;99.90
10443;DHT22;5269;51.146;16.986;2022-07-06T05:17:15;14.60;99.90
10443;DHT22;5269;51.146;16.986;2022-07-06T05:19:44;14.60;99.90
10443;DHT22;5269;51.146;16.986;2022-07-06T05:22:11;14.60;99.90
10443;DHT22;5269;51.146;16.986;2022-07-06T05:24:37;14.70;99.90
10443;DHT22;5269;51.146;16.986;2022-07-06T05:27:05;14.70;99.90
10443;DHT22;5269;51.146;16.986;2022-07-06T05:29:32;14.70;99.90
10443;DHT22;5269;51.146;16.986;2022-07-06T05:31:59;14.80;99.90
10443;DHT22;5269;51.146;16.986;2022-07-06T05:34:26;15.00;99.90
10443;DHT22;5269;51.146;16.986;2022-07-06T05:36:55;15.10;99.90
10443;DHT22;5269;51.146;16.986;2022-07-06T05:39:22;15.00;99.90
10443;DHT22;5269;51.146;16.986;2022-07-06T05:41:49;15.10;99.90
10443;DHT22;5269;51.146;16.986;2022-07-06T05:44:16;15.00;99.90
10443;DHT22;5269;51.146;16.986;2022-07-06T05:46:43;14.90;99.90
10443;DHT22;5269;51.146;16.986;2022-07-06T05:49:10;15.00;99.90
10443;DHT22;5269;51.146;16.986;2022-07-06T05:51:55;15.20;99.90
10443;DHT22;5269;51.146;16.986;2022-07-06T05:54:22;15.20;99.90
10443;DHT22;5269;51.146;16.986;2022-07-06T05:56:49;15.30;99.90
10443;DHT22;5269;51.146;16.986;2022-07-06T05:59:16;15.30;99.90
10443;DHT22;5269;51.146;16.986;2022-07-06T06:01:43;15.40;99.90
10443;DHT22;5269;51.146;16.986;2022-07-06T06:04:10;15.50;99.90
10443;DHT22;5269;51.146;16.986;2022-07-06T06:06:37;15.60;99.90
10443;DHT22;5269;51.146;16.986;2022-07-06T06:09:05;15.60;99.90
10443;DHT22;5269;51.146;16.986;2022-07-06T06:11:32;15.60;99.90
10443;DHT22;5269;51.146;16.986;2022-07-06T06:13:59;15.80;99.90
10443;DHT22;5269;51.146;16.986;2022-07-06T06:16:26;15.70;99.90
10443;DHT22;5269;51.146;16.986;2022-07-06T06:29:17;15.80;99.90
10443;DHT22;5269;51.146;16.986;2022-07-06T06:31:48;15.90;99.90
10443;DHT22;5269;51.146;16.986;2022-07-06T06:34:15;15.90;99.90
10443;DHT22;5269;51.146;16.986;2022-07-06T06:36:42;16.00;99.90
10443;DHT22;5269;51.146;16.986;2022-07-06T06:39:09;16.00;99.90
10443;DHT22;5269;51.146;16.986;2022-07-06T06:41:38;16.00;99.90
10443;DHT22;5269;51.146;16.986;2022-07-06T06:44:05;16.00;99.90
10443;DHT22;5269;51.146;16.986;2022-07-06T06:46:33;16.00;99.90
10443;DHT22;5269;51.146;16.986;2022-07-06T06:49:00;16.10;99.90
10443;DHT22;5269;51.146;16.986;2022-07-06T06:51:27;16.10;99.90
10443;DHT22;5269;51.146;16.986;2022-07-06T06:54:12;16.10;99.90
10443;DHT22;5269;51.146;16.986;2022-07-06T07:19:50;17.00;99.90
10443;DHT22;5269;51.146;16.986;2022-07-06T07:22:18;17.00;99.90
10443;DHT22;5269;51.146;16.986;2022-07-06T07:25:00;17.10;99.90
10443;DHT22;5269;51.146;16.986;2022-07-06T07:30:50;17.40;99.90
10443;DHT22;5269;51.146;16.986;2022-07-06T07:33:17;17.70;99.90
10443;DHT22;5269;51.146;16.986;2022-07-06T07:35:46;17.70;99.90
10443;DHT22;5269;51.146;16.986;2022-07-06T07:53:40;18.30;99.90
10443;DHT22;5269;51.146;16.986;2022-07-06T07:56:43;18.60;1.00
10443;DHT22;5269;51.146;16.986;2022-07-06T08:02:22;18.80;99.90
10443;DHT22;5269;51.146;16.986;2022-07-06T08:10:59;19.00;1.00
10443;DHT22;5269;51.146;16.986;2022-07-06T08:16:22;19.10;1.00
10443;DHT22;5269;51.146;16.986;2022-07-06T08:18:54;19.20;1.00
10443;DHT22;5269;51.146;16.986;2022-07-06T08:26:37;19.40;1.00
10443;DHT22;5269;51.146;16.986;2022-07-06T08:32:15;19.50;99.90
10443;DHT22;5269;51.146;16.986;2022-07-06T08:34:42;19.70;99.90
10443;DHT22;5269;51.146;16.986;2022-07-06T08:37:13;19.80;99.90
10443;DHT22;5269;51.146;16.986;2022-07-06T08:39:40;19.80;1.00
10443;DHT22;5269;51.146;16.986;2022-07-06T08:47:20;20.10;99.90
10443;DHT22;5269;51.146;16.986;2022-07-06T08:49:49;20.10;99.90
10443;DHT22;5269;51.146;16.986;2022-07-06T08:52:16;20.20;1.00
10443;DHT22;5269;51.146;16.986;2022-07-06T08:54:43;20.30;99.90
10443;DHT22;5269;51.146;16.986;2022-07-06T08:57:10;20.30;1.00
10443;DHT22;5269;51.146;16.986;2022-07-06T08:59:38;20.30;1.00
10443;DHT22;5269;51.146;16.986;2022-07-06T09:02:13;20.50;1.00
10443;DHT22;5269;51.146;16.986;2022-07-06T09:04:42;20.50;99.90
10443;DHT22;5269;51.146;16.986;2022-07-06T09:07:29;20.40;99.90
10443;DHT22;5269;51.146;16.986;2022-07-06T09:09:56;20.50;99.90
10443;DHT22;5269;51.146;16.986;2022-07-06T09:12:26;20.40;99.90
10443;DHT22;5269;51.146;16.986;2022-07-06T09:14:54;20.50;99.90
10443;DHT22;5269;51.146;16.986;2022-07-06T09:17:25;20.60;99.90
10443;DHT22;5269;51.146;16.986;2022-07-06T09:19:56;20.90;99.90
10443;DHT22;5269;51.146;16.986;2022-07-06T09:22:26;20.70;14.40
10443;DHT22;5269;51.146;16.986;2022-07-06T09:25:00;20.80;1.00
10443;DHT22;5269;51.146;16.986;2022-07-06T09:27:27;21.00;93.30
10443;DHT22;5269;51.146;16.986;2022-07-06T09:29:59;21.00;1.00
10443;DHT22;5269;51.146;16.986;2022-07-06T09:32:27;20.90;1.00
10443;DHT22;5269;51.146;16.986;2022-07-06T09:34:56;21.10;1.00
10443;DHT22;5269;51.146;16.986;2022-07-06T09:37:23;21.00;1.00
10443;DHT22;5269;51.146;16.986;2022-07-06T09:39:51;21.10;1.00
10443;DHT22;5269;51.146;16.986;2022-07-06T09:42:24;21.10;1.00
10443;DHT22;5269;51.146;16.986;2022-07-06T09:44:52;21.30;1.00
10443;DHT22;5269;51.146;16.986;2022-07-06T09:47:21;21.30;1.00
10443;DHT22;5269;51.146;16.986;2022-07-06T09:49:57;21.50;1.00
10443;DHT22;5269;51.146;16.986;2022-07-06T09:52:26;21.80;1.00
10443;DHT22;5269;51.146;16.986;2022-07-06T09:54:54;22.20;1.00
10443;DHT22;5269;51.146;16.986;2022-07-06T09:57:21;22.00;1.00
10443;DHT22;5269;51.146;16.986;2022-07-06T09:59:50;22.30;1.00
10443;DHT22;5269;51.146;16.986;2022-07-06T10:02:20;22.30;1.00
10443;DHT22;5269;51.146;16.986;2022-07-06T10:04:48;21.90;99.90
10443;DHT22;5269;51.146;16.986;2022-07-06T10:07:37;21.80;99.90
10443;DHT22;5269;51.146;16.986;2022-07-06T10:10:25;22.20;99.90
10443;DHT22;5269;51.146;16.986;2022-07-06T10:12:55;22.20;99.90
10443;DHT22;5269;51.146;16.986;2022-07-06T10:15:23;22.00;99.90
10443;DHT22;5269;51.146;16.986;2022-07-06T10:18:40;22.10;99.90
10443;DHT22;5269;51.146;16.986;2022-07-06T11:10:47;21.60;99.90
10443;DHT22;5269;51.146;16.986;2022-07-06T11:20:37;21.60;99.90
10443;DHT22;5269;51.146;16.986;2022-07-06T11:23:04;21.50;99.90
10443;DHT22;5269;51.146;16.986;2022-07-06T11:25:31;21.50;99.90
10443;DHT22;5269;51.146;16.986;2022-07-06T11:28:31;21.40;99.90
10443;DHT22;5269;51.146;16.986;2022-07-06T11:34:21;21.00;99.90
10443;DHT22;5269;51.146;16.986;2022-07-06T11:43:58;21.70;99.90
10443;DHT22;5269;51.146;16.986;2022-07-06T12:12:14;22.70;99.90
10443;DHT22;5269;51.146;16.986;2022-07-06T12:18:06;22.40;99.90
10443;DHT22;5269;51.146;16.986;2022-07-06T12:20:34;22.10;99.90
10443;DHT22;5269;51.146;16.986;2022-07-06T12:23:01;22.50;99.90
10443;DHT22;5269;51.146;16.986;2022-07-06T12:25:36;22.90;99.90
10443;DHT22;5269;51.146;16.986;2022-07-06T12:28:05;23.30;99.90
10443;DHT22;5269;51.146;16.986;2022-07-06T12:30:33;23.20;99.90
10443;DHT22;5269;51.146;16.986;2022-07-06T12:33:18;22.80;99.90
10443;DHT22;5269;51.146;16.986;2022-07-06T12:35:45;22.70;99.90
10443;DHT22;5269;51.146;16.986;2022-07-06T12:38:12;22.70;99.90
10443;DHT22;5269;51.146;16.986;2022-07-06T12:40:48;22.80;99.90
10443;DHT22;5269;51.146;16.986;2022-07-06T12:46:38;23.50;99.90
10443;DHT22;5269;51.146;16.986;2022-07-06T12:49:14;23.70;99.90
10443;DHT22;5269;51.146;16.986;2022-07-06T12:51:53;23.90;99.90
10443;DHT22;5269;51.146;16.986;2022-07-06T12:54:20;23.80;99.90
10443;DHT22;5269;51.146;16.986;2022-07-06T12:57:08;23.60;99.90
10443;DHT22;5269;51.146;16.986;2022-07-06T12:59:37;23.30;99.90
10443;DHT22;5269;51.146;16.986;2022-07-06T13:02:08;23.10;99.90
10443;DHT22;5269;51.146;16.986;2022-07-06T13:04:38;22.80;99.90
10443;DHT22;5269;51.146;16.986;2022-07-06T13:07:19;22.80;99.90
10443;DHT22;5269;51.146;16.986;2022-07-06T13:09:46;22.60;99.90
10443;DHT22;5269;51.146;16.986;2022-07-06T13:12:13;22.60;99.90
10443;DHT22;5269;51.146;16.986;2022-07-06T13:14:40;22.70;99.90
10443;DHT22;5269;51.146;16.986;2022-07-06T13:17:09;23.20;99.90
10443;DHT22;5269;51.146;16.986;2022-07-06T13:19:36;23.60;99.90
10443;DHT22;5269;51.146;16.986;2022-07-06T13:22:03;24.00;99.90
10443;DHT22;5269;51.146;16.986;2022-07-06T13:24:30;24.10;99.90
10443;DHT22;5269;51.146;16.986;2022-07-06T13:26:57;23.70;99.90
10443;DHT22;5269;51.146;16.986;2022-07-06T13:29:25;23.20;99.90
10443;DHT22;5269;51.146;16.986;2022-07-06T13:31:52;23.00;99.90
10443;DHT22;5269;51.146;16.986;2022-07-06T13:34:20;22.70;99.90
10443;DHT22;5269;51.146;16.986;2022-07-06T13:36:47;22.60;99.90
10443;DHT22;5269;51.146;16.986;2022-07-06T13:39:14;22.90;99.90
10443;DHT22;5269;51.146;16.986;2022-07-06T13:41:42;23.10;99.90
10443;DHT22;5269;51.146;16.986;2022-07-06T13:44:09;23.00;99.90
10443;DHT22;5269;51.146;16.986;2022-07-06T13:46:38;22.90;99.90
10443;DHT22;5269;51.146;16.986;2022-07-06T13:49:06;23.10;99.90
10443;DHT22;5269;51.146;16.986;2022-07-06T13:51:34;23.30;99.90
10443;DHT22;5269;51.146;16.986;2022-07-06T13:54:02;23.70;99.90
10443;DHT22;5269;51.146;16.986;2022-07-06T13:56:44;24.00;99.90
10443;DHT22;5269;51.146;16.986;2022-07-06T13:59:27;24.00;99.90
10443;DHT22;5269;51.146;16.986;2022-07-06T14:01:54;24.30;99.90
10443;DHT22;5269;51.146;16.986;2022-07-06T14:04:21;24.20;99.90
10443;DHT22;5269;51.146;16.986;2022-07-06T14:06:50;24.30;99.90
10443;DHT22;5269;51.146;16.986;2022-07-06T14:09:16;24.10;99.90
10443;DHT22;5269;51.146;16.986;2022-07-06T14:11:44;23.50;99.90
10443;DHT22;5269;51.146;16.986;2022-07-06T14:14:10;23.40;99.90
10443;DHT22;5269;51.146;16.986;2022-07-06T14:16:37;23.20;99.90
10443;DHT22;5269;51.146;16.986;2022-07-06T14:19:06;23.40;99.90
10443;DHT22;5269;51.146;16.986;2022-07-06T14:21:34;23.40;99.90
10443;DHT22;5269;51.146;16.986;2022-07-06T14:24:03;23.30;99.90
10443;DHT22;5269;51.146;16.986;2022-07-06T14:26:30;23.40;99.90
10443;DHT22;5269;51.146;16.986;2022-07-06T14:32:39;24.00;99.90
10443;DHT22;5269;51.146;16.986;2022-07-06T14:38:45;24.40;99.90
10443;DHT22;5269;51.146;16.986;2022-07-06T14:59:15;23.80;99.90
10443;DHT22;5269;51.146;16.986;2022-07-06T15:36:21;24.00;99.90
10443;DHT22;5269;51.146;16.986;2022-07-06T15:42:05;24.00;99.90
10443;DHT22;5269;51.146;16.986;2022-07-06T15:44:57;24.20;99.90
10443;DHT22;5269;51.146;16.986;2022-07-06T15:47:40;23.50;99.90
10443;DHT22;5269;51.146;16.986;2022-07-06T15:51:10;23.60;99.90
10443;DHT22;5269;51.146;16.986;2022-07-06T16:00:31;24.90;99.90
10443;DHT22;5269;51.146;16.986;2022-07-06T16:03:06;25.20;99.90
10443;DHT22;5269;51.146;16.986;2022-07-06T16:05:46;25.20;99.90
10443;DHT22;5269;51.146;16.986;2022-07-06T16:08:25;25.20;99.90
10443;DHT22;5269;51.146;16.986;2022-07-06T16:11:09;25.50;99.90
10443;DHT22;5269;51.146;16.986;2022-07-06T16:13:41;24.80;99.90
10443;DHT22;5269;51.146;16.986;2022-07-06T16:16:14;24.70;99.90
10443;DHT22;5269;51.146;16.986;2022-07-06T16:22:06;25.20;99.90
10443;DHT22;5269;51.146;16.986;2022-07-06T16:24:52;25.00;99.90
10443;DHT22;5269;51.146;16.986;2022-07-06T16:27:38;25.00;99.90
10443;DHT22;5269;51.146;16.986;2022-07-06T16:30:17;24.90;99.90
10443;DHT22;5269;51.146;16.986;2022-07-06T16:32:48;24.20;99.90
10443;DHT22;5269;51.146;16.986;2022-07-06T16:35:30;24.30;99.90
10443;DHT22;5269;51.146;16.986;2022-07-06T16:38:36;24.00;99.90
10443;DHT22;5269;51.146;16.986;2022-07-06T16:41:06;24.70;99.90
10443;DHT22;5269;51.146;16.986;2022-07-06T16:43:33;24.70;99.90
10443;DHT22;5269;51.146;16.986;2022-07-06T16:46:19;25.20;99.90
10443;DHT22;5269;51.146;16.986;2022-07-06T16:48:50;25.40;99.90
10443;DHT22;5269;51.146;16.986;2022-07-06T16:51:20;26.10;99.90
10443;DHT22;5269;51.146;16.986;2022-07-06T16:53:47;25.50;99.90
10443;DHT22;5269;51.146;16.986;2022-07-06T16:56:52;25.00;99.90
10443;DHT22;5269;51.146;16.986;2022-07-06T16:59:25;24.30;99.90
10443;DHT22;5269;51.146;16.986;2022-07-06T17:01:55;24.40;99.90
10443;DHT22;5269;51.146;16.986;2022-07-06T17:04:39;24.70;99.90
10443;DHT22;5269;51.146;16.986;2022-07-06T17:07:10;24.60;99.90
10443;DHT22;5269;51.146;16.986;2022-07-06T17:09:37;24.30;99.90
10443;DHT22;5269;51.146;16.986;2022-07-06T17:12:05;24.80;99.90
10443;DHT22;5269;51.146;16.986;2022-07-06T17:14:32;24.80;99.90
10443;DHT22;5269;51.146;16.986;2022-07-06T17:16:59;24.70;99.90
10443;DHT22;5269;51.146;16.986;2022-07-06T17:19:28;24.40;99.90
10443;DHT22;5269;51.146;16.986;2022-07-06T17:21:57;24.40;99.90
10443;DHT22;5269;51.146;16.986;2022-07-06T17:24:27;24.80;99.90
10443;DHT22;5269;51.146;16.986;2022-07-06T17:32:08;24.10;99.90
10443;DHT22;5269;51.146;16.986;2022-07-06T17:37:57;23.70;99.90
10443;DHT22;5269;51.146;16.986;2022-07-06T17:40:28;23.80;99.90
10443;DHT22;5269;51.146;16.986;2022-07-06T17:42:55;24.00;99.90
10443;DHT22;5269;51.146;16.986;2022-07-06T17:48:34;23.30;99.90
10443;DHT22;5269;51.146;16.986;2022-07-06T17:51:12;23.20;99.90
10443;DHT22;5269;51.146;16.986;2022-07-06T17:53:43;23.20;99.90
10443;DHT22;5269;51.146;16.986;2022-07-06T17:56:13;23.50;99.90
10443;DHT22;5269;51.146;16.986;2022-07-06T17:58:44;23.30;99.90
10443;DHT22;5269;51.146;16.986;2022-07-06T18:01:11;23.10;99.90
10443;DHT22;5269;51.146;16.986;2022-07-06T18:03:39;22.60;99.90
10443;DHT22;5269;51.146;16.986;2022-07-06T18:06:11;21.80;99.90
10443;DHT22;5269;51.146;16.986;2022-07-06T18:32:07;20.60;99.90
10443;DHT22;5269;51.146;16.986;2022-07-06T18:34:43;20.50;99.90
10443;DHT22;5269;51.146;16.986;2022-07-06T18:37:11;20.30;99.90
10443;DHT22;5269;51.146;16.986;2022-07-06T18:39:53;20.10;99.90
10443;DHT22;5269;51.146;16.986;2022-07-06T18:42:22;19.90;99.90
10443;DHT22;5269;51.146;16.986;2022-07-06T18:44:50;19.90;99.90
10443;DHT22;5269;51.146;16.986;2022-07-06T18:47:20;19.90;99.90
10443;DHT22;5269;51.146;16.986;2022-07-06T18:49:49;19.80;99.90
10443;DHT22;5269;51.146;16.986;2022-07-06T18:53:00;19.80;99.90
10443;DHT22;5269;51.146;16.986;2022-07-06T18:57:15;19.60;99.90
10443;DHT22;5269;51.146;16.986;2022-07-06T18:58:43;19.50;99.90
10443;DHT22;5269;51.146;16.986;2022-07-06T19:04:01;19.30;99.90
10443;DHT22;5269;51.146;16.986;2022-07-06T19:09:24;19.20;99.90
10443;DHT22;5269;51.146;16.986;2022-07-06T19:11:52;18.90;99.90
10443;DHT22;5269;51.146;16.986;2022-07-06T19:14:37;18.80;99.90
10443;DHT22;5269;51.146;16.986;2022-07-06T19:17:11;18.80;99.90
10443;DHT22;5269;51.146;16.986;2022-07-06T19:19:41;18.70;99.90
10443;DHT22;5269;51.146;16.986;2022-07-06T19:22:09;18.70;99.90
10443;DHT22;5269;51.146;16.986;2022-07-06T19:28:38;18.40;99.90
10443;DHT22;5269;51.146;16.986;2022-07-06T19:31:06;18.40;99.90
10443;DHT22;5269;51.146;16.986;2022-07-06T19:33:38;18.30;99.90
10443;DHT22;5269;51.146;16.986;2022-07-06T19:36:15;18.40;99.90
10443;DHT22;5269;51.146;16.986;2022-07-06T19:38:54;18.40;99.90
10443;DHT22;5269;51.146;16.986;2022-07-06T19:41:32;18.30;99.90
10443;DHT22;5269;51.146;16.986;2022-07-06T19:44:02;18.00;99.90
10443;DHT22;5269;51.146;16.986;2022-07-06T19:46:29;17.90;99.90
10443;DHT22;5269;51.146;16.986;2022-07-06T19:48:59;17.70;99.90
10443;DHT22;5269;51.146;16.986;2022-07-06T19:51:30;17.60;99.90
10443;DHT22;5269;51.146;16.986;2022-07-06T19:53:57;17.50;1.00
10443;DHT22;5269;51.146;16.986;2022-07-06T19:56:27;17.40;1.00
10443;DHT22;5269;51.146;16.986;2022-07-06T19:58:57;17.30;1.00
10443;DHT22;5269;51.146;16.986;2022-07-06T20:01:24;17.10;1.00
10443;DHT22;5269;51.146;16.986;2022-07-06T20:03:51;17.10;1.00
10443;DHT22;5269;51.146;16.986;2022-07-06T20:06:24;17.00;1.00
10443;DHT22;5269;51.146;16.986;2022-07-06T20:08:58;17.00;1.00
10443;DHT22;5269;51.146;16.986;2022-07-06T20:11:26;17.00;1.00
10443;DHT22;5269;51.146;16.986;2022-07-06T20:21:06;16.70;99.90
10443;DHT22;5269;51.146;16.986;2022-07-06T20:23:43;16.60;99.90
10443;DHT22;5269;51.146;16.986;2022-07-06T20:26:26;16.50;1.00
10443;DHT22;5269;51.146;16.986;2022-07-06T20:29:05;16.30;1.00
10443;DHT22;5269;51.146;16.986;2022-07-06T20:33:35;16.20;1.00
10443;DHT22;5269;51.146;16.986;2022-07-06T20:35:12;16.10;1.00
10443;DHT22;5269;51.146;16.986;2022-07-06T20:37:39;16.10;1.00
10443;DHT22;5269;51.146;16.986;2022-07-06T20:40:07;16.00;1.00
10443;DHT22;5269;51.146;16.986;2022-07-06T20:42:38;16.00;1.00
10443;DHT22;5269;51.146;16.986;2022-07-06T20:45:06;15.90;1.00
10443;DHT22;5269;51.146;16.986;2022-07-06T20:47:33;15.80;1.00
10443;DHT22;5269;51.146;16.986;2022-07-06T20:50:37;15.90;1.00
10443;DHT22;5269;51.146;16.986;2022-07-06T20:53:35;15.90;99.90
10443;DHT22;5269;51.146;16.986;2022-07-06T20:56:05;15.70;99.90
10443;DHT22;5269;51.146;16.986;2022-07-06T21:02:12;15.40;1.00
10443;DHT22;5269;51.146;16.986;2022-07-06T21:04:42;15.40;1.00